San Andres — A8OK7 — position and weather

sailwx.info

Track history (hours):
 
Tides and Currents Weather Stations Pressure Air Temp Water Temp Dewpoint Dewpoint Depression Visibility Wind Speed Wind Dir Waves Ship Positions

San Andres

Last reported at 2017-Nov-26 04:54 UTC. Time now 2017-Dec-15 10:22 UTC.
Position N 10°18' W 075°50'.
Warning: this ship's position is 19 days out of date.

Length 170 m; beam 27 m; draft 11.3 m.

Type: Cargo ship. MMSI: 636016649.

Date/timePositionNaut miles runAvg speedWind from/ knotsBaromVisibWave heightAir tempDewpointWater temp
2017-Nov-26 04:54N 10°18' W 075°50'717.2
2017-Nov-26 04:30N 10°19' W 075°43'815.6
2017-Nov-26 04:00N 10°19' W 075°35'4 8.0
2017-Nov-26 03:30N 10°23' W 075°33'0 0.1
2017-Nov-26 02:58N 10°23' W 075°33'0 0.1
2017-Nov-26 02:28N 10°23' W 075°33'0 0.1
2017-Nov-26 01:58N 10°23' W 075°33'0 0.0
2017-Nov-26 01:28N 10°23' W 075°33'0 0.0
2017-Nov-26 00:58N 10°23' W 075°33'0 0.0
2017-Nov-26 00:28N 10°23' W 075°33'0 0.0
2017-Nov-25 23:58N 10°23' W 075°33'0 0.1
2017-Nov-25 23:28N 10°23' W 075°33'0 0.0
2017-Nov-25 22:58N 10°23' W 075°33'0 0.0
2017-Nov-25 22:28N 10°23' W 075°33'0 0.1
2017-Nov-25 21:58N 10°23' W 075°33'0 0.1
2017-Nov-25 21:28N 10°23' W 075°33'0 0.1
2017-Nov-25 20:58N 10°23' W 075°33'2 3.5
2017-Nov-25 20:30N 10°22' W 075°31'0 0.9
2017-Nov-25 19:58N 10°23' W 075°31'0 0.0
2017-Nov-25 19:28N 10°23' W 075°31'0 0.0
2017-Nov-25 18:58N 10°23' W 075°31'0 0.0
2017-Nov-25 18:28N 10°23' W 075°31'0 0.0
2017-Nov-25 17:58N 10°23' W 075°31'0 0.0
2017-Nov-25 17:28N 10°23' W 075°31'0 0.0
2017-Nov-25 16:58N 10°23' W 075°31'0 0.0
2017-Nov-25 16:28N 10°23' W 075°31'0 0.0
2017-Nov-25 15:58N 10°23' W 075°31'0 0.0
2017-Nov-25 15:28N 10°23' W 075°31'0 0.0
2017-Nov-25 14:58N 10°23' W 075°31'0 0.0
2017-Nov-25 14:28N 10°23' W 075°31'0 0.0
2017-Nov-25 13:52N 10°23' W 075°31'0 0.0
2017-Nov-25 13:28N 10°23' W 075°31'0 0.0
2017-Nov-25 12:58N 10°23' W 075°31'0 0.0
2017-Nov-25 12:28N 10°23' W 075°31'0 0.0
2017-Nov-25 11:58N 10°23' W 075°31'0 0.0
2017-Nov-25 11:28N 10°23' W 075°31'0 0.0
2017-Nov-25 10:58N 10°23' W 075°31'0 0.0
2017-Nov-25 10:28N 10°23' W 075°31'0 0.0
2017-Nov-25 09:58N 10°23' W 075°31'0 0.0
2017-Nov-25 09:28N 10°23' W 075°31'0 0.0
2017-Nov-25 08:58N 10°23' W 075°31'0 0.0
2017-Nov-25 08:28N 10°23' W 075°31'0 0.0
2017-Nov-25 07:58N 10°23' W 075°31'0 0.0
2017-Nov-25 07:28N 10°23' W 075°31'0 0.0
2017-Nov-25 06:58N 10°23' W 075°31'0 0.0
2017-Nov-25 06:28N 10°23' W 075°31'0 0.0
2017-Nov-25 05:58N 10°23' W 075°31'0 0.0
2017-Nov-25 05:30N 10°23' W 075°31'1 1.6
2017-Nov-25 05:00N 10°22' W 075°31'3 6.9
2017-Nov-25 04:30N 10°19' W 075°33'3 6.1
2017-Nov-25 04:00N 10°19' W 075°36'5 9.1
2017-Nov-25 03:30N 10°18' W 075°41'510.4
2017-Nov-25 03:00N 10°17' W 075°46'0 0.7
2017-Nov-25 02:30N 10°17' W 075°46'0 0.5
2017-Nov-25 02:00N 10°17' W 075°47'2 4.2
2017-Nov-25 01:27N 10°20' W 075°46'1 1.4
2017-Nov-25 01:00N 10°20' W 075°45'0 0.7
2017-Nov-25 00:27N 10°19' W 075°45'0 0.6
2017-Nov-25 00:00N 10°19' W 075°45'0 0.7
2017-Nov-24 23:30N 10°19' W 075°46'0 0.7
2017-Nov-24 23:00N 10°19' W 075°46'0 0.6
2017-Nov-24 22:30N 10°19' W 075°46'0 0.6
2017-Nov-24 22:00N 10°19' W 075°46'1 1.9
2017-Nov-24 21:29N 10°18' W 075°47'510.4
2017-Nov-24 21:00N 10°16' W 075°52'76 1.8
2017-Nov-23 01:53N 11°08' W 074°55'1119.3
2017-Nov-23 01:18N 11°10' W 074°44'619.4
2017-Nov-23 01:00N 11°11' W 074°38'  
2017-Nov-19 06:00N 11°48' W 074°48'   330 / 51008.0 5.4 27.023.630.0
2017-Nov-16 06:00N 16°54' W 073°18'   160 / 111007.2 5.4 27.523.4
Track history (hours):
 
Tides and Currents Weather Stations Pressure Air Temp Water Temp Dewpoint Dewpoint Depression Visibility Wind Speed Wind Dir Waves Ship Positions

San Andres

Last reported at 2017-Nov-26 04:54 UTC. Time now 2017-Dec-15 10:22 UTC.
Position N 10°18' W 075°50'.
Warning: this ship's position is 19 days out of date.

Length 170 m; beam 27 m; draft 11.3 m.

Type: Cargo ship. MMSI: 636016649.

Date/timePositionNaut miles runAvg speedWind from/ knotsBaromVisibWave heightAir tempDewpointWater temp
2017-Nov-26 04:54N 10°18' W 075°50'717.2
2017-Nov-26 04:30N 10°19' W 075°43'815.6
2017-Nov-26 04:00N 10°19' W 075°35'4 8.0
2017-Nov-26 03:30N 10°23' W 075°33'0 0.1
2017-Nov-26 02:58N 10°23' W 075°33'0 0.1
2017-Nov-26 02:28N 10°23' W 075°33'0 0.1
2017-Nov-26 01:58N 10°23' W 075°33'0 0.0
2017-Nov-26 01:28N 10°23' W 075°33'0 0.0
2017-Nov-26 00:58N 10°23' W 075°33'0 0.0
2017-Nov-26 00:28N 10°23' W 075°33'0 0.0
2017-Nov-25 23:58N 10°23' W 075°33'0 0.1
2017-Nov-25 23:28N 10°23' W 075°33'0 0.0
2017-Nov-25 22:58N 10°23' W 075°33'0 0.0
2017-Nov-25 22:28N 10°23' W 075°33'0 0.1
2017-Nov-25 21:58N 10°23' W 075°33'0 0.1
2017-Nov-25 21:28N 10°23' W 075°33'0 0.1
2017-Nov-25 20:58N 10°23' W 075°33'2 3.5
2017-Nov-25 20:30N 10°22' W 075°31'0 0.9
2017-Nov-25 19:58N 10°23' W 075°31'0 0.0
2017-Nov-25 19:28N 10°23' W 075°31'0 0.0
2017-Nov-25 18:58N 10°23' W 075°31'0 0.0
2017-Nov-25 18:28N 10°23' W 075°31'0 0.0
2017-Nov-25 17:58N 10°23' W 075°31'0 0.0
2017-Nov-25 17:28N 10°23' W 075°31'0 0.0
2017-Nov-25 16:58N 10°23' W 075°31'0 0.0
2017-Nov-25 16:28N 10°23' W 075°31'0 0.0
2017-Nov-25 15:58N 10°23' W 075°31'0 0.0
2017-Nov-25 15:28N 10°23' W 075°31'0 0.0
2017-Nov-25 14:58N 10°23' W 075°31'0 0.0
2017-Nov-25 14:28N 10°23' W 075°31'0 0.0
2017-Nov-25 13:52N 10°23' W 075°31'0 0.0
2017-Nov-25 13:28N 10°23' W 075°31'0 0.0
2017-Nov-25 12:58N 10°23' W 075°31'0 0.0
2017-Nov-25 12:28N 10°23' W 075°31'0 0.0
2017-Nov-25 11:58N 10°23' W 075°31'0 0.0
2017-Nov-25 11:28N 10°23' W 075°31'0 0.0
2017-Nov-25 10:58N 10°23' W 075°31'0 0.0
2017-Nov-25 10:28N 10°23' W 075°31'0 0.0
2017-Nov-25 09:58N 10°23' W 075°31'0 0.0
2017-Nov-25 09:28N 10°23' W 075°31'0 0.0
2017-Nov-25 08:58N 10°23' W 075°31'0 0.0
2017-Nov-25 08:28N 10°23' W 075°31'0 0.0
2017-Nov-25 07:58N 10°23' W 075°31'0 0.0
2017-Nov-25 07:28N 10°23' W 075°31'0 0.0
2017-Nov-25 06:58N 10°23' W 075°31'0 0.0
2017-Nov-25 06:28N 10°23' W 075°31'0 0.0
2017-Nov-25 05:58N 10°23' W 075°31'0 0.0
2017-Nov-25 05:30N 10°23' W 075°31'1 1.6
2017-Nov-25 05:00N 10°22' W 075°31'3 6.9
2017-Nov-25 04:30N 10°19' W 075°33'3 6.1
2017-Nov-25 04:00N 10°19' W 075°36'5 9.1
2017-Nov-25 03:30N 10°18' W 075°41'510.4
2017-Nov-25 03:00N 10°17' W 075°46'0 0.7
2017-Nov-25 02:30N 10°17' W 075°46'0 0.5
2017-Nov-25 02:00N 10°17' W 075°47'2 4.2
2017-Nov-25 01:27N 10°20' W 075°46'1 1.4
2017-Nov-25 01:00N 10°20' W 075°45'0 0.7
2017-Nov-25 00:27N 10°19' W 075°45'0 0.6
2017-Nov-25 00:00N 10°19' W 075°45'0 0.7
2017-Nov-24 23:30N 10°19' W 075°46'0 0.7
2017-Nov-24 23:00N 10°19' W 075°46'0 0.6
2017-Nov-24 22:30N 10°19' W 075°46'0 0.6
2017-Nov-24 22:00N 10°19' W 075°46'1 1.9
2017-Nov-24 21:29N 10°18' W 075°47'510.4
2017-Nov-24 21:00N 10°16' W 075°52'76 1.8
2017-Nov-23 01:53N 11°08' W 074°55'1119.3
2017-Nov-23 01:18N 11°10' W 074°44'619.4
2017-Nov-23 01:00N 11°11' W 074°38'  
2017-Nov-19 06:00N 11°48' W 074°48'   330 / 51008.0 5.4 27.023.630.0
2017-Nov-16 06:00N 16°54' W 073°18'   160 / 111007.2 5.4 27.523.4

Dump ship's entire track history